Time;durP1;ratioP1;P1;durP2;ratioP2;P2;SDS_P1;SDS_P2;PMS_P1;PMS_P2;Temp;Humidity;BMP_temperature;BMP_pressure;BME280_temperature;BME280_humidity;BME280_pressure;Samples;Min_cycle;Max_cycle;Signal;HPM_P1;HPM_P2
2022/03/14 00:00:48;;;;;;;85.87;41.48;;;;;;;0.37;100.00;102477.69;1726718;83;21029;-61
2022/03/14 00:03:15;;;;;;;95.47;43.95;;;;;;;0.35;100.00;102473.83;1726661;83;21070;-61
2022/03/14 00:05:43;;;;;;;100.07;46.45;;;;;;;0.37;100.00;102472.20;1726517;83;21066;-61
2022/03/14 00:08:09;;;;;;;106.97;49.90;;;;;;;0.41;100.00;102471.89;1726686;83;21484;-62
2022/03/14 00:10:36;;;;;;;104.78;48.52;;;;;;;0.42;100.00;102472.33;1726340;83;21027;-62
2022/03/14 00:13:04;;;;;;;105.75;49.05;;;;;;;0.40;100.00;102462.56;1708107;83;21022;-61
2022/03/14 00:15:33;;;;;;;106.20;47.98;;;;;;;0.42;100.00;102462.20;1726444;83;21062;-62
2022/03/14 00:18:01;;;;;;;95.77;47.23;;;;;;;0.46;100.00;102458.94;1726742;83;21070;-62
2022/03/14 00:20:29;;;;;;;105.00;47.73;;;;;;;0.46;100.00;102467.80;1726839;83;21118;-61
2022/03/14 00:22:58;;;;;;;98.45;46.20;;;;;;;0.43;100.00;102461.78;1726329;83;21070;-61
2022/03/14 00:25:26;;;;;;;96.75;46.25;;;;;;;0.34;100.00;102463.23;1726310;83;21027;-62
2022/03/14 00:27:54;;;;;;;98.15;45.38;;;;;;;0.32;100.00;102460.21;1726515;82;21022;-62
2022/03/14 00:30:22;;;;;;;95.12;44.63;;;;;;;0.35;100.00;102463.70;1726572;83;21090;-62
2022/03/14 00:32:49;;;;;;;103.00;47.20;;;;;;;0.37;100.00;102462.48;1726770;83;21531;-61
2022/03/14 00:35:16;;;;;;;103.12;46.75;;;;;;;0.37;100.00;102463.75;1726409;83;21050;-62
2022/03/14 00:37:44;;;;;;;97.75;46.30;;;;;;;0.39;100.00;102457.91;1726427;83;21003;-61
2022/03/14 00:40:12;;;;;;;107.95;49.27;;;;;;;0.41;100.00;102457.96;1726544;83;21043;-63
2022/03/14 00:42:41;;;;;;;106.22;47.00;;;;;;;0.43;100.00;102461.78;1726556;83;21035;-62
2022/03/14 00:45:09;;;;;;;109.25;49.50;;;;;;;0.44;100.00;102464.78;1726561;83;21113;-62
2022/03/14 00:47:36;;;;;;;107.15;47.83;;;;;;;0.43;100.00;102466.47;1726780;83;21547;-62
2022/03/14 00:50:05;;;;;;;107.07;46.23;;;;;;;0.39;100.00;102464.66;1726293;83;21020;-62
2022/03/14 00:52:31;;;;;;;102.50;46.02;;;;;;;0.40;100.00;102468.48;1726680;83;21035;-62
2022/03/14 00:54:58;;;;;;;99.77;44.93;;;;;;;0.40;100.00;102465.09;1726344;83;21039;-62
2022/03/14 00:57:25;;;;;;;106.20;46.40;;;;;;;0.40;100.00;102463.41;1726416;83;21568;-62
2022/03/14 00:59:54;;;;;;;105.60;46.00;;;;;;;0.41;100.00;102469.36;1726687;83;21034;-61
2022/03/14 01:02:20;;;;;;;101.87;47.83;;;;;;;0.39;100.00;102468.05;1708056;83;21101;-61
2022/03/14 01:04:47;;;;;;;103.20;46.23;;;;;;;0.35;100.00;102467.91;1726416;83;21090;-62
2022/03/14 01:07:14;;;;;;;101.00;46.10;;;;;;;0.35;100.00;102469.18;1726613;83;20999;-62
2022/03/14 01:09:41;;;;;;;108.87;48.05;;;;;;;0.37;100.00;102472.62;1726289;83;21015;-62
2022/03/14 01:12:09;;;;;;;103.90;46.50;;;;;;;0.37;100.00;102477.27;1726458;83;21062;-62
2022/03/14 01:14:38;;;;;;;96.70;46.10;;;;;;;0.37;100.00;102476.42;1726501;83;21102;-62
2022/03/14 01:17:05;;;;;;;108.17;45.75;;;;;;;0.37;100.00;102473.89;1708604;83;21527;-62
2022/03/14 01:19:34;;;;;;;90.67;43.73;;;;;;;0.39;100.00;102483.66;1726397;82;20987;-62
2022/03/14 01:22:01;;;;;;;102.32;48.20;;;;;;;0.38;100.00;102483.19;1726616;83;21070;-62
2022/03/14 01:24:28;;;;;;;102.53;47.35;;;;;;;0.36;100.00;102489.47;1726425;83;21015;-62
2022/03/14 01:26:56;;;;;;;92.95;42.90;;;;;;;0.35;100.00;102488.18;1726350;83;21097;-61
2022/03/14 01:29:23;;;;;;;82.70;38.90;;;;;;;0.36;100.00;102489.89;1726632;83;21003;-61
2022/03/14 01:31:51;;;;;;;78.33;36.53;;;;;;;0.36;100.00;102482.28;1726428;83;21074;-62
2022/03/14 01:34:19;;;;;;;73.37;36.00;;;;;;;0.37;100.00;102482.75;1726805;83;20998;-62
2022/03/14 01:36:45;;;;;;;78.40;37.28;;;;;;;0.40;100.00;102482.83;1726300;83;21043;-61
2022/03/14 01:39:12;;;;;;;85.72;37.63;;;;;;;0.42;100.00;102481.61;1726409;83;20999;-61
2022/03/14 01:41:39;;;;;;;78.83;38.17;;;;;;;0.42;100.00;102488.80;1726585;83;21464;-62
2022/03/14 01:44:07;;;;;;;75.42;37.90;;;;;;;0.39;100.00;102495.91;1726398;83;21042;-61
2022/03/14 01:46:34;;;;;;;81.50;38.98;;;;;;;0.38;100.00;102489.11;1726318;83;21122;-61
2022/03/14 01:49:02;;;;;;;92.62;42.65;;;;;;;0.37;100.00;102492.47;1726627;83;21011;-62
2022/03/14 01:51:29;;;;;;;86.92;41.42;;;;;;;0.36;100.00;102497.07;1732102;83;21531;-62
2022/03/14 01:53:57;;;;;;;81.30;40.85;;;;;;;0.33;100.00;102494.46;1734425;83;21017;-61
2022/03/14 01:56:25;;;;;;;82.08;39.95;;;;;;;0.31;100.00;102492.70;1734737;83;21028;-62
2022/03/14 01:58:53;;;;;;;82.20;40.50;;;;;;;0.31;100.00;102502.84;1734639;83;21040;-62
2022/03/14 02:01:20;;;;;;;84.90;39.78;;;;;;;0.33;100.00;102500.80;1734610;83;21044;-62
2022/03/14 02:03:52;;;;;;;81.63;39.50;;;;;;;0.33;100.00;102501.21;1734630;83;21001;-62
2022/03/14 02:06:18;;;;;;;82.17;38.73;;;;;;;0.35;100.00;102502.11;1733439;83;21033;-62
2022/03/14 02:08:45;;;;;;;75.85;38.15;;;;;;;0.36;100.00;102501.28;1734329;83;21047;-62
2022/03/14 02:11:12;;;;;;;73.35;37.35;;;;;;;0.31;100.00;102502.42;1734573;83;21044;-62
2022/03/14 02:13:40;;;;;;;74.67;36.20;;;;;;;0.31;100.00;102505.38;1734303;83;21565;-62
2022/03/14 02:16:08;;;;;;;74.82;35.48;;;;;;;0.30;100.00;102506.16;1734368;83;21044;-61
2022/03/14 02:18:35;;;;;;;74.60;35.60;;;;;;;0.31;100.00;102504.95;1734380;83;21095;-61
2022/03/14 02:21:04;;;;;;;81.17;37.80;;;;;;;0.34;100.00;102514.31;1734319;83;21095;-62
2022/03/14 02:23:30;;;;;;;98.07;41.60;;;;;;;0.36;100.00;102510.16;1734662;83;21084;-62
2022/03/14 02:25:57;;;;;;;75.45;35.60;;;;;;;0.37;100.00;102519.08;1734387;83;21033;-62
2022/03/14 02:28:24;;;;;;;66.28;30.50;;;;;;;0.40;100.00;102514.50;1734479;83;21524;-62
2022/03/14 02:30:54;;;;;;;59.33;29.35;;;;;;;0.40;100.00;102514.08;1734543;83;21067;-61
2022/03/14 02:33:22;;;;;;;52.23;24.50;;;;;;;0.43;100.00;102516.25;1734370;83;21049;-62
2022/03/14 02:35:49;;;;;;;49.40;23.73;;;;;;;0.44;100.00;102517.58;1734772;83;21516;-61
2022/03/14 02:38:17;;;;;;;51.65;24.32;;;;;;;0.48;100.00;102515.59;1734313;83;21080;-62
2022/03/14 02:40:47;;;;;;;47.95;22.73;;;;;;;0.53;100.00;102506.88;1734600;83;21076;-61
2022/03/14 02:43:20;;;;;;;47.73;22.58;;;;;;;0.55;100.00;102509.05;1734535;83;21524;-62
2022/03/14 02:45:47;;;;;;;47.62;22.98;;;;;;;0.55;100.00;102511.16;1734490;83;21107;-62
2022/03/14 02:48:17;;;;;;;44.05;22.45;;;;;;;0.55;100.00;102507.37;1734743;82;21493;-61
2022/03/14 02:50:48;;;;;;;44.23;21.55;;;;;;;0.57;100.00;102516.29;1732005;83;21050;-61
2022/03/14 02:53:13;;;;;;;45.98;22.25;;;;;;;0.59;100.00;102517.19;1726391;83;21023;-62
2022/03/14 02:55:41;;;;;;;46.92;22.60;;;;;;;0.61;100.00;102518.09;1726312;83;21097;-62
2022/03/14 02:58:08;;;;;;;45.40;22.50;;;;;;;0.62;100.00;102526.55;1708074;83;21039;-61
2022/03/14 03:00:36;;;;;;;45.52;23.47;;;;;;;0.60;100.00;102522.28;1726336;83;21031;-61
2022/03/14 03:03:11;;;;;;;46.20;22.65;;;;;;;0.60;100.00;102521.43;1726259;83;21554;-62
2022/03/14 03:05:43;;;;;;;;;;;;;;;0.62;100.00;102522.34;1729152;83;21043;-61
2022/03/14 03:08:07;;;;;;;54.08;26.10;;;;;;;0.56;100.00;102523.00;1726116;83;20111;-61
2022/03/14 03:10:34;;;;;;;59.50;28.15;;;;;;;0.56;100.00;102526.80;1726184;83;21476;-61
2022/03/14 03:13:03;;;;;;;62.27;28.47;;;;;;;0.56;100.00;102529.34;1708167;83;21000;-61
2022/03/14 03:15:31;;;;;;;46.08;22.45;;;;;;;0.58;100.00;102530.25;1726171;83;21058;-61
2022/03/14 03:17:57;;;;;;;41.02;20.40;;;;;;;0.56;100.00;102536.95;1726552;83;21023;-62
2022/03/14 03:20:26;;;;;;;36.85;18.98;;;;;;;0.58;100.00;102535.31;1726261;83;21501;-61
2022/03/14 03:22:54;;;;;;;38.38;19.30;;;;;;;0.57;100.00;102534.03;1726543;83;21558;-61
2022/03/14 03:25:21;;;;;;;40.43;18.25;;;;;;;0.59;100.00;102530.72;1726384;83;21471;-61
2022/03/14 03:27:49;;;;;;;36.05;17.07;;;;;;;0.63;100.00;102537.12;1726602;83;21471;-61
2022/03/14 03:30:16;;;;;;;28.70;15.58;;;;;;;0.63;100.00;102534.59;1726434;83;21526;-62
2022/03/14 03:32:43;;;;;;;32.35;15.15;;;;;;;0.66;100.00;102539.77;1726216;83;21046;-61
2022/03/14 03:35:10;;;;;;;31.37;14.70;;;;;;;0.67;100.00;102536.41;1726587;83;21089;-61
2022/03/14 03:37:39;;;;;;;28.57;13.90;;;;;;;0.65;100.00;102531.69;1726155;83;21550;-62
2022/03/14 03:40:08;;;;;;;28.37;15.60;;;;;;;0.70;100.00;102533.97;1708160;83;21039;-61
2022/03/14 03:42:35;;;;;;;37.75;19.15;;;;;;;0.66;100.00;102530.89;1726552;83;21015;-62
2022/03/14 03:45:03;;;;;;;42.50;20.25;;;;;;;0.60;100.00;102534.10;1726293;83;21075;-62
2022/03/14 03:47:30;;;;;;;43.75;21.37;;;;;;;0.55;100.00;102535.23;1726355;83;21054;-62
2022/03/14 03:49:58;;;;;;;42.33;22.82;;;;;;;0.51;100.00;102538.91;1726283;83;21092;-62
2022/03/14 03:52:25;;;;;;;46.70;22.27;;;;;;;0.51;100.00;102532.58;1710876;82;21044;-62
2022/03/14 03:54:52;;;;;;;44.70;23.15;;;;;;;0.53;100.00;102528.41;1708290;83;21012;-62
2022/03/14 03:57:19;;;;;;;42.20;22.30;;;;;;;0.59;100.00;102524.80;1708523;84;21507;-62
2022/03/14 03:59:45;;;;;;;42.93;22.82;;;;;;;0.56;100.00;102522.16;1708367;83;21035;-62
2022/03/14 04:02:12;;;;;;;44.13;23.02;;;;;;;0.57;100.00;102522.20;1708491;84;21076;-61
2022/03/14 04:04:39;;;;;;;45.38;23.50;;;;;;;0.55;100.00;102528.05;1708702;83;21039;-62
2022/03/14 04:07:08;;;;;;;42.45;23.12;;;;;;;0.53;100.00;102528.41;1709176;83;21466;-62
2022/03/14 04:09:35;;;;;;;47.55;22.13;;;;;;;0.52;100.00;102532.59;1708873;84;21024;-62
2022/03/14 04:12:05;;;;;;;45.78;22.95;;;;;;;0.53;100.00;102540.67;1708714;84;21067;-62
2022/03/14 04:14:33;;;;;;;36.60;18.57;;;;;;;0.55;100.00;102544.11;1708769;83;21043;-62
2022/03/14 04:17:00;;;;;;;32.85;16.73;;;;;;;0.60;100.00;102547.63;1708754;84;21535;-62
2022/03/14 04:19:29;;;;;;;33.40;16.87;;;;;;;0.68;100.00;102555.46;1708506;83;21055;-62
2022/03/14 04:21:56;;;;;;;35.23;17.82;;;;;;;0.70;100.00;102551.72;1708816;84;21035;-62
2022/03/14 04:24:23;;;;;;;32.90;17.62;;;;;;;0.71;100.00;102548.34;1708384;84;21048;-62
2022/03/14 04:26:52;;;;;;;44.05;22.35;;;;;;;0.74;100.00;102558.18;1708510;83;21043;-62
2022/03/14 04:29:19;;;;;;;49.18;24.25;;;;;;;0.76;100.00;102555.70;1708772;84;20980;-62
2022/03/14 04:31:46;;;;;;;78.55;36.33;;;;;;;0.79;100.00;102562.11;1708441;84;21042;-62
2022/03/14 04:34:13;;;;;;;97.05;41.65;;;;;;;0.73;100.00;102569.53;1708677;84;21028;-61
2022/03/14 04:36:40;;;;;;;78.35;32.38;;;;;;;0.75;100.00;102570.44;1708666;84;21583;-62
2022/03/14 04:39:07;;;;;;;62.98;25.17;;;;;;;0.73;100.00;102572.95;1708583;84;21040;-62
2022/03/14 04:41:35;;;;;;;42.53;19.70;;;;;;;0.72;100.00;102577.97;1708754;84;21535;-61
2022/03/14 04:44:05;;;;;;;39.67;19.20;;;;;;;0.72;100.00;102577.97;1708475;84;21070;-63
2022/03/14 04:46:34;;;;;;;40.17;19.57;;;;;;;0.78;100.00;102575.61;1708656;84;21067;-62
2022/03/14 04:49:01;;;;;;;38.13;16.73;;;;;;;0.83;100.00;102574.06;1708753;83;21047;-62
2022/03/14 04:51:28;;;;;;;38.08;17.23;;;;;;;0.78;100.00;102580.69;1708553;84;21512;-62
2022/03/14 04:53:55;;;;;;;33.10;16.70;;;;;;;0.84;100.00;102583.81;1718728;83;21017;-62
2022/03/14 04:56:22;;;;;;;29.55;16.52;;;;;;;0.89;100.00;102580.98;1734711;83;21060;-61
2022/03/14 04:58:50;;;;;;;33.35;16.70;;;;;;;0.91;100.00;102586.58;1734607;83;21089;-62
2022/03/14 05:01:23;;;;;;;34.20;16.97;;;;;;;0.88;100.00;102591.55;1734638;83;21543;-62
2022/03/14 05:03:52;;;;;;;33.10;17.37;;;;;;;0.94;100.00;102587.92;1734704;83;21028;-62
2022/03/14 05:06:19;;;;;;;35.03;16.73;;;;;;;1.02;100.00;102591.11;1734618;83;21013;-62
2022/03/14 05:08:47;;;;;;;31.00;16.23;;;;;;;1.07;100.00;102595.89;1734452;83;21032;-62
2022/03/14 05:11:15;;;;;;;33.48;17.20;;;;;;;1.13;100.00;102593.52;1734492;83;21008;-62
2022/03/14 05:13:43;;;;;;;29.70;15.68;;;;;;;1.15;100.00;102595.69;1734507;83;21017;-61
2022/03/14 05:16:10;;;;;;;34.53;18.15;;;;;;;1.22;100.00;102587.84;1734501;83;21030;-62
2022/03/14 05:18:38;;;;;;;32.78;16.82;;;;;;;1.18;100.00;102594.53;1734708;83;21025;-62
2022/03/14 05:21:05;;;;;;;31.33;16.95;;;;;;;1.24;100.00;102593.43;1733960;83;21051;-62
2022/03/14 05:23:32;;;;;;;38.78;18.23;;;;;;;1.33;100.00;102594.09;1734723;83;21040;-62
2022/03/14 05:26:00;;;;;;;33.38;17.67;;;;;;;1.32;100.00;102588.16;1734471;83;21048;-62
2022/03/14 05:28:27;;;;;;;35.15;17.55;;;;;;;1.39;100.00;102595.52;1734314;83;21533;-63
2022/03/14 05:30:54;;;;;;;34.38;17.95;;;;;;;1.45;100.00;102589.34;1734516;83;21036;-62
2022/03/14 05:33:21;;;;;;;35.05;17.37;;;;;;;1.38;100.00;102595.09;1734446;83;21062;-62
2022/03/14 05:35:48;;;;;;;37.65;17.48;;;;;;;1.43;100.00;102593.52;1734875;83;21457;-62
2022/03/14 05:38:16;;;;;;;35.33;17.45;;;;;;;1.31;100.00;102590.23;1734333;83;21048;-62
2022/03/14 05:40:43;;;;;;;37.35;18.05;;;;;;;1.42;100.00;102592.20;1734353;83;21048;-63
2022/03/14 05:43:11;;;;;;;34.75;16.20;;;;;;;1.51;100.00;102597.13;1734864;83;21492;-62
2022/03/14 05:45:38;;;;;;;31.62;15.75;;;;;;;1.37;100.00;102599.70;1734395;83;21124;-61
2022/03/14 05:48:05;;;;;;;25.52;14.07;;;;;;;1.46;100.00;102597.81;1734406;83;21502;-62
2022/03/14 05:50:33;;;;;;;25.45;14.28;;;;;;;1.47;100.00;102600.81;1734373;83;21009;-62
2022/03/14 05:53:01;;;;;;;27.95;14.35;;;;;;;1.68;100.00;102612.80;1734397;83;21064;-62
2022/03/14 05:55:28;;;;;;;25.12;14.53;;;;;;;1.64;100.00;102611.41;1734340;83;21056;-62
2022/03/14 05:57:55;;;;;;;24.85;13.22;;;;;;;1.72;100.00;102609.52;1734339;83;21016;-62
2022/03/14 06:00:25;;;;;;;25.15;13.83;;;;;;;1.72;100.00;102617.13;1734797;83;21532;-62
2022/03/14 06:02:53;;;;;;;29.98;14.33;;;;;;;1.80;100.00;102608.06;1734572;83;21048;-61
2022/03/14 06:05:22;;;;;;;25.40;13.25;;;;;;;1.92;100.00;102609.19;1734732;83;21504;-61
2022/03/14 06:07:50;;;;;;;26.87;13.85;;;;;;;2.07;100.00;102610.86;1735043;83;21056;-61
2022/03/14 06:10:17;;;;;;;23.47;12.28;;;;;;;1.92;100.00;102610.45;1734535;83;21513;-61
2022/03/14 06:12:44;;;;;;;19.30;11.33;;;;;;;1.92;100.00;102611.73;1734524;83;21560;-61
2022/03/14 06:15:15;;;;;;;18.95;11.35;;;;;;;1.95;100.00;102624.52;1734284;83;21025;-61
2022/03/14 06:17:43;;;;;;;24.50;12.50;;;;;;;1.86;100.00;102623.00;1734606;83;20985;-61
2022/03/14 06:20:13;;;;;;;21.30;10.95;;;;;;;1.71;100.00;102619.23;1734264;83;21071;-61
2022/03/14 06:22:44;;;;;;;20.15;11.10;;;;;;;1.91;100.00;102613.83;1734657;83;21048;-63
2022/03/14 06:25:12;;;;;;;18.37;10.68;;;;;;;1.94;100.00;102621.09;1734572;83;21006;-61
2022/03/14 06:27:40;;;;;;;21.45;11.08;;;;;;;2.05;100.00;102618.84;1734313;83;21052;-62
2022/03/14 06:30:10;;;;;;;17.77;10.68;;;;;;;1.91;99.17;102621.45;1734579;83;21036;-63
2022/03/14 06:32:39;;;;;;;18.95;10.50;;;;;;;2.13;99.17;102621.55;1734530;83;21020;-62
2022/03/14 06:35:16;;;;;;;16.52;9.73;;;;;;;2.03;98.12;102621.76;1734514;83;21094;-63
2022/03/14 06:37:44;;;;;;;15.43;8.68;;;;;;;1.90;93.00;102613.37;1734564;83;21056;-62
2022/03/14 06:40:12;;;;;;;16.25;8.95;;;;;;;1.90;93.00;102613.37;1734392;83;21052;-61
2022/03/14 06:42:41;;;;;;;14.63;8.90;;;;;;;1.64;92.59;102618.61;1734492;83;21020;-62
2022/03/14 06:45:09;;;;;;;13.53;8.73;;;;;;;1.91;91.77;102613.41;1734340;83;21116;-62
2022/03/14 06:47:38;;;;;;;17.07;9.43;;;;;;;1.95;92.43;102606.73;1734562;83;22279;-62
2022/03/14 06:50:08;;;;;;;19.02;9.18;;;;;;;2.05;92.46;102607.80;1734588;83;21024;-63
2022/03/14 06:52:35;;;;;;;13.03;8.35;;;;;;;2.39;90.47;102604.40;1734650;83;21036;-63
2022/03/14 06:55:05;;;;;;;17.80;8.48;;;;;;;2.18;87.15;102611.95;1734440;83;21092;-63
2022/03/14 06:57:33;;;;;;;15.83;8.63;;;;;;;2.28;87.09;102609.23;1717840;83;21032;-62
2022/03/14 07:00:00;;;;;;;15.78;8.55;;;;;;;2.21;86.18;102617.55;1734282;83;21080;-60
2022/03/14 07:02:27;;;;;;;14.93;8.40;;;;;;;2.20;86.33;102612.86;1734424;83;21091;-63
2022/03/14 07:04:56;;;;;;;13.53;7.72;;;;;;;2.34;85.77;102608.11;1734291;83;21052;-60
2022/03/14 07:07:22;;;;;;;10.82;6.78;;;;;;;2.23;83.20;102612.09;1734684;83;21045;-60
2022/03/14 07:09:49;;;;;;;11.10;6.40;;;;;;;2.31;81.86;102619.87;1734353;83;21044;-60
2022/03/14 07:12:17;;;;;;;14.47;8.00;;;;;;;2.30;81.19;102616.91;1734301;83;21564;-61
2022/03/14 07:14:44;;;;;;;11.12;6.87;;;;;;;2.30;81.19;102675.36;1734641;83;21052;-62
2022/03/14 07:17:11;;;;;;;14.30;7.08;;;;;;;1.91;82.45;102610.02;1734472;83;21571;-62
2022/03/14 07:19:42;;;;;;;13.62;7.30;;;;;;;1.76;83.89;102618.97;1734669;83;21052;-62
2022/03/14 07:22:06;;;;;;;13.93;7.33;;;;;;;1.84;85.09;102620.83;1734330;82;21064;-61
2022/03/14 07:24:32;;;;;;;12.28;7.15;;;;;;;1.71;85.02;102620.50;1734294;82;21544;-61
2022/03/14 07:26:59;;;;;;;12.28;6.97;;;;;;;2.01;85.21;102614.52;1734562;83;21012;-61
2022/03/14 07:29:26;;;;;;;12.78;7.85;;;;;;;2.10;84.39;102618.53;1734313;83;21013;-63
2022/03/14 07:31:52;;;;;;;12.40;8.08;;;;;;;2.15;85.52;102616.98;1734583;83;21043;-61
2022/03/14 07:34:19;;;;;;;12.43;7.85;;;;;;;2.04;85.45;102615.84;1725756;83;21036;-61
2022/03/14 07:36:46;;;;;;;11.68;6.60;;;;;;;2.18;83.75;102615.77;1705196;84;21049;-61
2022/03/14 07:39:13;;;;;;;11.48;7.08;;;;;;;2.11;82.01;102620.66;1706079;83;21005;-62
2022/03/14 07:41:40;;;;;;;13.35;7.05;;;;;;;2.16;81.62;102612.75;1710857;84;21126;-61
2022/03/14 07:44:07;;;;;;;11.53;6.58;;;;;;;2.28;80.99;102602.03;1703724;84;21043;-62
2022/03/14 07:46:34;;;;;;;11.97;6.65;;;;;;;2.28;80.99;102602.03;1703699;84;21083;-62
2022/03/14 07:49:01;;;;;;;10.85;6.78;;;;;;;2.54;80.66;102609.85;1698668;84;21080;-61
2022/03/14 07:51:30;;;;;;;10.03;6.15;;;;;;;2.43;79.65;102621.86;1693346;84;21009;-61
2022/03/14 07:53:57;;;;;;;11.30;6.17;;;;;;;2.43;78.05;102618.05;1699077;84;21011;-60
2022/03/14 07:56:25;;;;;;;8.98;5.62;;;;;;;2.36;76.38;102621.72;1688060;83;21016;-60
2022/03/14 07:58:53;;;;;;;9.83;5.60;;;;;;;2.37;75.48;102625.99;1696516;84;20991;-60
2022/03/14 08:01:22;;;;;;;8.90;5.55;;;;;;;2.02;75.18;102630.61;1690930;84;21519;-60
2022/03/14 08:03:49;;;;;;;10.58;6.35;;;;;;;1.99;75.42;102627.59;1688821;84;20995;-61
2022/03/14 08:06:23;;;;;;;10.58;6.60;;;;;;;2.15;75.18;102622.06;1695691;84;21004;-60
2022/03/14 08:08:45;;;;;;;9.80;6.15;;;;;;;2.42;75.37;102622.28;1690246;84;21016;-61
2022/03/14 08:11:14;;;;;;;13.20;6.83;;;;;;;2.58;74.48;102622.23;1689900;84;20961;-60
2022/03/14 08:13:42;;;;;;;11.15;6.10;;;;;;;2.82;73.62;102625.74;1718160;82;21043;-62
2022/03/14 08:16:09;;;;;;;10.60;6.37;;;;;;;3.12;72.74;102621.73;1708342;83;21048;-61
2022/03/14 08:18:40;;;;;;;11.65;6.20;;;;;;;3.16;71.80;102624.78;1705445;84;21076;-61
2022/03/14 08:21:05;;;;;;;14.07;6.58;;;;;;;3.40;70.81;102619.72;1705317;83;21051;-62
2022/03/14 08:23:35;;;;;;;10.45;5.90;;;;;;;3.60;70.63;102615.02;1705198;84;21036;-62
2022/03/14 08:26:01;;;;;;;11.08;6.25;;;;;;;3.65;69.86;102615.09;1705780;83;21044;-62
2022/03/14 08:28:29;;;;;;;10.40;6.28;;;;;;;3.32;69.99;102610.65;1704703;84;21588;-62
2022/03/14 08:30:55;;;;;;;12.50;6.42;;;;;;;3.15;70.86;102610.32;1704532;84;21528;-63
2022/03/14 08:33:22;;;;;;;12.80;7.03;;;;;;;3.23;70.62;102623.20;1704138;83;21055;-62
2022/03/14 08:35:49;;;;;;;14.75;6.62;;;;;;;3.23;70.60;102614.30;1704679;84;21520;-62
2022/03/14 08:38:17;;;;;;;11.73;7.50;;;;;;;3.41;70.45;102615.08;1704400;84;21108;-61
2022/03/14 08:40:43;;;;;;;15.23;7.42;;;;;;;3.14;72.23;102610.28;1704616;84;21486;-61
2022/03/14 08:43:11;;;;;;;11.30;6.97;;;;;;;2.96;73.32;102619.27;1704420;84;21118;-62
2022/03/14 08:45:43;;;;;;;9.43;6.15;;;;;;;2.60;73.19;102616.77;1704293;84;21084;-62
2022/03/14 08:48:07;;;;;;;14.63;6.67;;;;;;;2.45;73.26;102612.16;1707948;83;21024;-62
2022/03/14 08:50:34;;;;;;;11.73;6.83;;;;;;;2.66;71.94;102612.24;1718523;83;21100;-62
2022/03/14 08:53:02;;;;;;;10.08;5.85;;;;;;;3.14;69.89;102602.26;1717764;83;21084;-62
2022/03/14 08:55:29;;;;;;;12.40;6.75;;;;;;;3.71;67.79;102599.52;1719951;82;21533;-63
2022/03/14 08:57:56;;;;;;;14.53;6.70;;;;;;;4.17;66.33;102596.45;1700801;84;21027;-62
2022/03/14 09:00:24;;;;;;;13.40;6.70;;;;;;;4.35;66.10;102588.67;1702333;84;21046;-63
2022/03/14 09:02:52;;;;;;;10.50;6.33;;;;;;;3.97;65.54;102592.73;1692856;84;21110;-63
2022/03/14 09:05:20;;;;;;;10.38;6.40;;;;;;;3.65;65.24;102589.62;1707509;83;21006;-63
2022/03/14 09:07:47;;;;;;;14.00;6.65;;;;;;;3.60;65.41;102585.72;1694876;84;21503;-63
2022/03/14 09:10:16;;;;;;;10.82;6.42;;;;;;;3.43;65.13;102586.70;1693180;84;21031;-63
2022/03/14 09:12:44;;;;;;;10.78;5.70;;;;;;;3.59;65.74;102578.93;1699460;82;21534;-63
2022/03/14 09:15:13;;;;;;;10.15;5.90;;;;;;;3.87;64.32;102579.39;1701385;83;21034;-61
2022/03/14 09:17:54;;;;;;;11.08;6.33;;;;;;;4.06;63.92;102564.86;1691646;84;21523;-62
2022/03/14 09:20:21;;;;;;;10.85;6.30;;;;;;;4.32;63.28;102565.66;1708247;83;21038;-62
2022/03/14 09:22:48;;;;;;;11.65;6.45;;;;;;;4.70;63.10;102566.20;1692705;84;21602;-62
2022/03/14 09:25:18;;;;;;;10.50;6.45;;;;;;;4.24;63.38;102570.67;1694791;84;20977;-61
2022/03/14 09:27:46;;;;;;;11.57;6.60;;;;;;;3.94;63.43;102578.68;1702435;84;21019;-62
2022/03/14 09:30:14;;;;;;;12.00;7.10;;;;;;;3.99;64.20;102575.77;1700320;83;21044;-61
2022/03/14 09:32:42;;;;;;;13.85;7.62;;;;;;;4.04;64.29;102581.82;1694987;83;21071;-61
2022/03/14 09:35:10;;;;;;;11.00;6.80;;;;;;;3.92;65.01;102575.25;1696207;84;20987;-61
2022/03/14 09:37:40;;;;;;;15.13;8.68;;;;;;;3.73;65.09;102577.88;1701096;84;21065;-61
2022/03/14 09:40:12;;;;;;;14.30;7.92;;;;;;;3.72;65.80;102571.93;1700901;83;20968;-61
2022/03/14 09:42:44;;;;;;;17.25;9.33;;;;;;;3.72;66.11;102572.36;1672397;84;20988;-61
2022/03/14 09:45:13;;;;;;;23.12;11.08;;;;;;;4.07;65.99;102577.18;1695972;84;21099;-62
2022/03/14 09:47:50;;;;;;;20.97;11.08;;;;;;;3.83;66.60;102571.26;1701689;84;21026;-62
2022/03/14 09:50:27;;;;;;;15.53;8.60;;;;;;;3.85;66.75;102565.77;1699821;84;21487;-62
2022/03/14 09:53:01;;;;;;;15.63;8.75;;;;;;;3.55;66.84;102570.80;1705073;84;21035;-60
2022/03/14 09:55:28;;;;;;;17.75;9.40;;;;;;;3.61;67.09;102571.75;1708992;83;21029;-60
2022/03/14 09:57:55;;;;;;;15.63;8.75;;;;;;;3.57;66.85;102572.53;1685214;84;21007;-62
2022/03/14 10:00:22;;;;;;;12.68;7.85;;;;;;;3.56;66.65;102567.40;1716044;82;21043;-61
2022/03/14 10:02:49;;;;;;;13.80;8.08;;;;;;;3.26;66.39;102572.77;1711954;84;21003;-60
2022/03/14 10:05:17;;;;;;;17.07;9.68;;;;;;;3.33;66.61;102561.47;1694399;83;21019;-61
2022/03/14 10:07:45;;;;;;;12.63;8.20;;;;;;;3.51;67.13;102557.56;1696100;84;21067;-62
2022/03/14 10:10:14;;;;;;;17.62;9.00;;;;;;;3.18;67.02;102561.16;1692183;84;20979;-62
2022/03/14 10:12:45;;;;;;;12.55;7.92;;;;;;;3.29;68.12;102566.06;1702029;83;21157;-61
2022/03/14 10:15:12;;;;;;;13.28;8.20;;;;;;;3.49;67.58;102553.70;1696067;84;20999;-61
2022/03/14 10:17:39;;;;;;;14.15;8.58;;;;;;;3.15;68.33;102567.48;1670309;84;21015;-60
2022/03/14 10:20:08;;;;;;;17.67;8.83;;;;;;;3.18;70.02;102569.68;1700712;84;20988;-61
2022/03/14 10:22:39;;;;;;;16.60;9.00;;;;;;;2.90;71.37;102560.62;1696251;84;20975;-60
2022/03/14 10:25:13;;;;;;;22.48;11.53;;;;;;;2.73;72.96;102568.30;1693752;84;20988;-60
2022/03/14 10:27:45;;;;;;;24.52;12.58;;;;;;;2.58;74.75;102559.52;1694562;84;21818;-60
2022/03/14 10:30:31;;;;;;;19.52;9.45;;;;;;;2.74;76.30;102556.05;1685913;82;21559;-60
2022/03/14 10:33:12;;;;;;;13.55;8.13;;;;;;;2.81;77.37;102556.61;1698642;84;20959;-60
2022/03/14 10:35:45;;;;;;;14.68;8.20;;;;;;;2.56;76.17;102561.59;1691543;84;21031;-60
2022/03/14 10:38:14;;;;;;;15.08;8.15;;;;;;;2.64;76.04;102556.68;1687482;85;21067;-60
2022/03/14 10:40:44;;;;;;;17.17;9.05;;;;;;;2.72;76.15;102554.73;1688553;84;20972;-59
2022/03/14 10:43:31;;;;;;;17.67;9.50;;;;;;;2.87;75.64;102555.88;1695387;84;21023;-61
2022/03/14 10:46:00;;;;;;;15.53;8.80;;;;;;;2.82;75.10;102549.44;1703212;84;21039;-61
2022/03/14 10:48:39;;;;;;;16.25;8.85;;;;;;;2.95;73.60;102551.81;1713659;84;21038;-60
2022/03/14 10:51:10;;;;;;;17.27;9.73;;;;;;;3.06;72.91;102547.78;1708728;84;21040;-60
2022/03/14 10:53:44;;;;;;;15.38;8.75;;;;;;;3.30;71.37;102546.55;1704719;84;21038;-60
2022/03/14 10:56:13;;;;;;;15.23;8.95;;;;;;;3.06;70.32;102544.38;1675758;84;21039;-60
2022/03/14 10:58:43;;;;;;;15.68;8.65;;;;;;;3.10;70.23;102546.16;1689507;84;21543;-61
2022/03/14 11:01:12;;;;;;;16.97;9.58;;;;;;;3.15;71.04;102539.48;1680319;85;22256;-60
2022/03/14 11:03:45;;;;;;;16.10;9.38;;;;;;;3.35;71.34;102532.23;1680029;85;21559;-60
2022/03/14 11:06:16;;;;;;;20.27;9.73;;;;;;;3.25;70.65;102529.08;1680376;85;21082;-60
2022/03/14 11:08:47;;;;;;;16.80;9.53;;;;;;;3.36;71.05;102522.05;1680022;85;21059;-60
2022/03/14 11:11:22;;;;;;;15.93;9.43;;;;;;;3.34;70.44;102517.34;1680191;85;21079;-60
2022/03/14 11:13:52;;;;;;;18.75;9.55;;;;;;;3.53;70.58;102510.91;1680320;85;21519;-60
2022/03/14 11:16:34;;;;;;;15.58;10.13;;;;;;;3.56;70.25;102517.74;1694623;84;21015;-60
2022/03/14 11:19:01;;;;;;;16.87;9.75;;;;;;;3.38;69.79;102520.81;1708711;84;21408;-61